METAR AND TAF INFORMATION
METAR FOR ENAL
ADDS - METARS form results

(0406 UTC 26 February 2020)
Data provider http://aviationweather.gov/metar/data/
 
METAR text: ENAL 260350Z AUTO 13016KT 9999 NCD 00/M09 Q0991
Conditions at: ENAL (ALESUND/VIGRA , NO) observed 0350 UTC 26 February 2020
Temperature: 0.0°C (32°F)
Dewpoint: -9.0°C (16°F) [RH = 51%]
Pressure (altimeter): 29.26 inches Hg (991.0 mb)
Winds: from the SE (130 degrees) at 18 MPH (16 knots; 8.2 m/s)
Visibility: 6 or more miles (10+ km)
Ceiling: at least 12,000 feet AGL
Clouds: sky clear below 12,000 feet AGL
Weather: no significant weather observed at this time

METAR text: ENAL 260320Z AUTO 13016KT 9999 NCD 00/M08 Q0991
Conditions at: ENAL (ALESUND/VIGRA , NO) observed 0320 UTC 26 February 2020
Temperature: 0.0°C (32°F)
Dewpoint: -8.0°C (18°F) [RH = 55%]
Pressure (altimeter): 29.26 inches Hg (991.0 mb)
Winds: from the SE (130 degrees) at 18 MPH (16 knots; 8.2 m/s)
Visibility: 6 or more miles (10+ km)
Ceiling: at least 12,000 feet AGL
Clouds: sky clear below 12,000 feet AGL
Weather: no significant weather observed at this time

Forecast for: ENAL (ALESUND/VIGRA , NO)
Text: TAF ENAL 260200Z 2603/2612 13015KT CAVOK
Forecast period: 0300 to 1200 UTC 26 February 2020
Forecast type: FROM: standard forecast or significant change
Winds: from the SE (130 degrees) at 17 MPH (15 knots; 7.7 m/s)
Visibility: 6 or more miles 10+ km)
Ceiling: unknown
Clouds: missing
Weather: NSW  (no significant weather)

 AIRPORT MAP

 RUNWAY INFORMATION
Runway 07 Runway length 7592 ft Runway width 148 ft
Runway elevation 34 ft Runway displaced threshold 490 ft Runway heading 65
Runway 25 Runway length 7592 ft Runway width 148 ft
Runway elevation 48 ft Runway displaced threshold 755 ft Runway heading 245

 AIRPORT FREQUENCIES
Type ATIS Name ATIS Frequency 128.65 MHZ
Type TWR Name TWR Frequency 119.85 MHZ

 AIRPORT NEAR NAVIGATION AIDS
Type NDB Name Vigra Frequency 355 KHZ
Type TACAN Name Vigra Frequency 112400 KHZ
Type VOR-DME Name Vigra Frequency 115800 KHZ



Powered by Virtual Airlines Manager [v2.6.2]